createdAt,value
2018-09-21T00:01:51.235Z,21.20
2018-09-21T00:04:20.479Z,21.10
2018-09-21T00:06:49.675Z,21.10
2018-09-21T00:09:18.908Z,21.00
2018-09-21T00:11:48.111Z,21.00
2018-09-21T00:14:17.342Z,21.00
2018-09-21T00:16:47.164Z,21.00
2018-09-21T00:19:16.364Z,21.00
2018-09-21T00:21:45.553Z,20.90
2018-09-21T00:24:14.792Z,20.80
2018-09-21T00:26:43.990Z,20.80
2018-09-21T00:29:13.176Z,20.80
2018-09-21T00:31:42.391Z,20.80
2018-09-21T00:34:11.593Z,20.80
2018-09-21T00:36:40.772Z,20.80
2018-09-21T00:39:10.831Z,20.70
2018-09-21T00:41:40.156Z,20.70
2018-09-21T00:44:09.331Z,20.60
2018-09-21T00:46:38.555Z,20.60
2018-09-21T00:49:07.762Z,20.60
2018-09-21T00:51:36.977Z,20.50
2018-09-21T00:54:06.574Z,20.50
2018-09-21T00:56:35.784Z,20.40
2018-09-21T00:59:05.139Z,20.40
2018-09-21T01:01:34.555Z,20.40
2018-09-21T01:04:03.862Z,20.40
2018-09-21T01:06:33.056Z,20.40
2018-09-21T01:09:02.895Z,20.30
2018-09-21T01:11:32.119Z,20.30
2018-09-21T01:14:01.311Z,20.30
2018-09-21T01:16:30.548Z,20.20
2018-09-21T01:18:59.819Z,20.20
2018-09-21T01:21:29.019Z,20.10
2018-09-21T01:23:58.593Z,20.10
2018-09-21T01:26:27.804Z,20.10
2018-09-21T01:28:57.055Z,20.10
2018-09-21T01:31:26.377Z,20.10
2018-09-21T01:33:55.628Z,20.00
2018-09-21T01:36:24.825Z,20.00
2018-09-21T01:38:54.043Z,20.00
2018-09-21T01:41:23.270Z,19.90
2018-09-21T01:43:52.447Z,19.90
2018-09-21T01:46:22.100Z,19.80
2018-09-21T01:48:51.295Z,19.80
2018-09-21T01:51:20.712Z,19.80
2018-09-21T01:53:49.896Z,19.80
2018-09-21T01:56:19.159Z,19.80
2018-09-21T01:58:48.446Z,19.70
2018-09-21T02:01:17.668Z,19.70
2018-09-21T02:03:46.895Z,19.70
2018-09-21T02:06:16.497Z,19.70
2018-09-21T02:08:45.910Z,19.60
2018-09-21T02:11:15.156Z,19.60
2018-09-21T02:13:44.411Z,19.60
2018-09-21T02:16:13.617Z,19.60
2018-09-21T02:18:42.819Z,19.50
2018-09-21T02:21:12.008Z,19.50
2018-09-21T02:23:41.219Z,19.50
2018-09-21T02:26:10.409Z,19.50
2018-09-21T02:28:39.603Z,19.50
2018-09-21T02:31:08.876Z,19.40
2018-09-21T02:33:38.055Z,19.30
2018-09-21T02:36:07.395Z,19.30
2018-09-21T02:38:36.591Z,19.20
2018-09-21T02:41:06.034Z,19.20
2018-09-21T02:43:35.224Z,19.20
2018-09-21T02:46:04.601Z,19.10
2018-09-21T02:48:33.859Z,19.10
2018-09-21T02:51:03.031Z,19.10
2018-09-21T02:53:32.911Z,19.00
2018-09-21T02:56:02.129Z,19.00
2018-09-21T02:58:31.324Z,19.00
2018-09-21T03:01:00.536Z,18.90
2018-09-21T03:03:29.721Z,18.90
2018-09-21T03:05:59.133Z,18.80
2018-09-21T03:08:28.821Z,18.80
2018-09-21T03:10:58.407Z,18.70
2018-09-21T03:13:27.640Z,18.70
2018-09-21T03:15:57.233Z,18.70
2018-09-21T03:18:26.433Z,18.60
2018-09-21T03:20:55.632Z,18.60
2018-09-21T03:23:24.987Z,18.60
2018-09-21T03:25:54.284Z,18.60
2018-09-21T03:28:23.503Z,18.50
2018-09-21T03:30:52.717Z,18.40
2018-09-21T03:33:21.916Z,18.40
2018-09-21T03:35:51.403Z,18.30
2018-09-21T03:38:21.553Z,18.30
2018-09-21T03:40:50.756Z,18.30
2018-09-21T03:43:20.003Z,18.40
2018-09-21T03:45:49.460Z,18.30
2018-09-21T03:48:18.656Z,18.20
2018-09-21T03:50:47.856Z,18.20
2018-09-21T03:53:17.106Z,18.20
2018-09-21T03:55:46.466Z,18.10
2018-09-21T03:58:15.672Z,18.00
2018-09-21T04:00:45.016Z,18.00
2018-09-21T04:03:14.276Z,17.90
2018-09-21T04:05:43.492Z,17.90
2018-09-21T04:08:12.905Z,17.90
2018-09-21T04:10:42.559Z,17.90
2018-09-21T04:13:11.752Z,17.90
2018-09-21T04:15:40.968Z,17.90
2018-09-21T04:18:10.199Z,17.90
2018-09-21T04:20:39.388Z,17.90
2018-09-21T04:23:09.073Z,17.90
2018-09-21T04:25:38.252Z,17.90
2018-09-21T04:28:07.456Z,17.90
2018-09-21T04:30:36.676Z,17.90
2018-09-21T04:33:05.878Z,17.90
2018-09-21T04:35:35.301Z,17.90
2018-09-21T04:38:04.504Z,17.90
2018-09-21T04:40:33.689Z,17.90
2018-09-21T04:43:02.886Z,17.90
2018-09-21T04:45:32.336Z,17.90
2018-09-21T04:48:01.564Z,17.90
2018-09-21T04:50:31.040Z,17.90
2018-09-21T04:53:00.240Z,17.90
2018-09-21T04:55:29.440Z,17.90
2018-09-21T04:57:58.844Z,17.90
2018-09-21T05:00:28.080Z,17.90
2018-09-21T05:02:57.268Z,17.90
2018-09-21T05:05:26.469Z,17.90
2018-09-21T05:07:56.071Z,17.90
2018-09-21T05:10:25.254Z,17.90
2018-09-21T05:12:54.576Z,17.90
2018-09-21T05:15:24.032Z,17.90
2018-09-21T05:17:53.263Z,17.90
2018-09-21T05:20:22.455Z,17.90
2018-09-21T05:22:51.678Z,17.90
2018-09-21T05:25:20.873Z,17.90
2018-09-21T05:27:50.064Z,17.90
2018-09-21T05:30:19.424Z,17.90
2018-09-21T05:32:50.720Z,17.90
2018-09-21T05:35:19.992Z,17.90
2018-09-21T05:37:49.191Z,17.90
2018-09-21T05:40:18.383Z,17.90
2018-09-21T05:42:47.615Z,18.00
2018-09-21T05:45:16.828Z,18.00
2018-09-21T05:47:46.022Z,18.10
2018-09-21T05:50:15.419Z,18.10
2018-09-21T05:52:44.625Z,18.10
2018-09-21T05:55:13.840Z,18.10
2018-09-21T05:57:43.076Z,18.20
2018-09-21T06:00:14.796Z,18.20
2018-09-21T06:02:44.787Z,18.20
2018-09-21T06:05:14.003Z,18.10
2018-09-21T06:07:43.239Z,18.20
2018-09-21T06:10:13.177Z,18.30
2018-09-21T06:12:42.096Z,18.30
2018-09-21T06:15:11.890Z,18.40
2018-09-21T06:17:41.179Z,18.40
2018-09-21T06:20:12.900Z,18.40
2018-09-21T06:22:45.103Z,18.40
2018-09-21T06:25:08.844Z,18.40
2018-09-21T06:27:38.059Z,18.40
2018-09-21T06:30:07.691Z,18.40
2018-09-21T06:32:37.576Z,18.40
2018-09-21T06:35:06.812Z,18.40
2018-09-21T06:37:36.028Z,18.50
2018-09-21T06:40:05.338Z,18.60
2018-09-21T06:42:34.537Z,18.60
2018-09-21T06:45:03.828Z,18.70
2018-09-21T06:47:33.047Z,18.80
2018-09-21T06:50:02.260Z,18.80
2018-09-21T06:52:31.668Z,18.90
2018-09-21T06:55:01.237Z,19.00
2018-09-21T06:57:30.428Z,19.10
2018-09-21T06:59:59.641Z,19.20
2018-09-21T07:02:28.856Z,19.30
2018-09-21T07:05:03.412Z,19.40
2018-09-21T07:07:32.683Z,19.50
2018-09-21T07:10:01.933Z,19.60
2018-09-21T07:12:31.096Z,19.70
2018-09-21T07:15:00.545Z,19.80
2018-09-21T07:17:30.252Z,19.90
2018-09-21T07:19:59.445Z,20.00
2018-09-21T07:22:28.719Z,20.20
2018-09-21T07:24:58.012Z,20.30
2018-09-21T07:27:27.225Z,20.50
2018-09-21T07:29:56.473Z,20.60
2018-09-21T07:32:25.800Z,20.80
2018-09-21T07:34:55.463Z,21.00
2018-09-21T07:37:24.891Z,21.20
2018-09-21T07:39:54.052Z,21.40
2018-09-21T07:42:23.256Z,21.70
2018-09-21T07:44:52.468Z,21.90
2018-09-21T07:47:21.787Z,22.00
2018-09-21T07:49:50.991Z,22.20
2018-09-21T07:52:20.196Z,22.30
2018-09-21T07:54:49.404Z,22.40
2018-09-21T07:57:18.783Z,22.50
2018-09-21T07:59:48.277Z,22.60
2018-09-21T08:02:17.647Z,22.80
2018-09-21T08:04:46.832Z,22.80
2018-09-21T08:07:16.067Z,22.90
2018-09-21T08:09:45.248Z,23.00
2018-09-21T08:12:14.464Z,23.10
2018-09-21T08:14:43.687Z,23.30
2018-09-21T08:17:12.926Z,23.40
2018-09-21T08:19:42.768Z,23.60
2018-09-21T08:22:12.312Z,23.70
2018-09-21T08:24:41.655Z,23.80
2018-09-21T08:27:12.756Z,23.90
2018-09-21T08:29:41.991Z,24.00
2018-09-21T08:32:11.176Z,24.10
2018-09-21T08:34:40.433Z,24.20
2018-09-21T08:37:09.773Z,24.20
2018-09-21T08:39:39.488Z,24.30
2018-09-21T08:42:08.666Z,24.40
2018-09-21T08:44:37.955Z,24.50
2018-09-21T08:47:07.197Z,24.50
2018-09-21T08:49:36.435Z,24.60
2018-09-21T08:52:05.608Z,24.70
2018-09-21T08:54:34.817Z,24.80
2018-09-21T08:57:04.012Z,24.80
2018-09-21T08:59:33.234Z,24.90
2018-09-21T09:02:02.407Z,25.00
2018-09-21T09:04:31.615Z,25.10
2018-09-21T09:07:01.035Z,25.10
2018-09-21T09:09:30.346Z,25.20
2018-09-21T09:11:59.545Z,25.20
2018-09-21T09:14:28.735Z,25.40
2018-09-21T09:16:58.171Z,25.50
2018-09-21T09:19:27.360Z,25.60
2018-09-21T09:21:56.759Z,25.60
2018-09-21T09:24:25.977Z,25.70
2018-09-21T09:26:55.141Z,25.70
2018-09-21T09:29:24.480Z,25.80
2018-09-21T09:31:53.667Z,25.80
2018-09-21T09:34:22.867Z,25.80
2018-09-21T09:36:52.154Z,25.80
2018-09-21T09:39:21.300Z,25.80
2018-09-21T09:41:50.512Z,25.90
2018-09-21T09:44:19.712Z,25.90
2018-09-21T09:46:48.897Z,26.00
2018-09-21T09:49:18.124Z,26.00
2018-09-21T09:51:47.652Z,26.10
2018-09-21T09:54:16.841Z,26.20
2018-09-21T09:56:46.145Z,26.30
2018-09-21T09:59:15.339Z,26.30
2018-09-21T10:01:44.524Z,26.30
2018-09-21T10:04:14.076Z,26.30
2018-09-21T10:06:43.299Z,26.40
2018-09-21T10:09:12.700Z,26.50
2018-09-21T10:11:41.883Z,26.60
2018-09-21T10:14:11.432Z,26.60
2018-09-21T10:16:40.629Z,26.60
2018-09-21T10:19:09.860Z,26.80
2018-09-21T10:21:39.132Z,26.80
2018-09-21T10:24:08.725Z,26.70
2018-09-21T10:26:38.185Z,26.50
2018-09-21T10:29:07.405Z,26.50
2018-09-21T10:31:36.627Z,26.50
2018-09-21T10:34:05.928Z,26.40
2018-09-21T10:36:35.424Z,26.50
2018-09-21T10:39:06.162Z,26.60
2018-09-21T10:41:35.333Z,26.70
2018-09-21T10:44:04.574Z,26.60
2018-09-21T10:46:34.155Z,26.60
2018-09-21T10:49:03.343Z,26.50
2018-09-21T10:51:32.884Z,26.40
2018-09-21T10:54:02.206Z,26.40
2018-09-21T10:56:31.384Z,26.30
2018-09-21T10:59:00.687Z,26.40
2018-09-21T11:01:30.060Z,26.40
2018-09-21T11:03:59.247Z,26.50
2018-09-21T11:06:28.447Z,26.60
2018-09-21T11:08:57.639Z,26.70
2018-09-21T11:11:26.826Z,26.60
2018-09-21T11:13:56.397Z,26.60
2018-09-21T11:16:25.835Z,26.60
2018-09-21T11:18:55.010Z,26.50
2018-09-21T11:21:24.337Z,26.60
2018-09-21T11:23:53.540Z,26.70
2018-09-21T11:26:23.376Z,26.80
2018-09-21T11:28:52.945Z,27.00
2018-09-21T11:31:22.124Z,27.40
2018-09-21T11:33:51.547Z,27.60
2018-09-21T11:36:20.791Z,27.80
2018-09-21T11:38:50.002Z,28.20
2018-09-21T11:41:19.208Z,28.60
2018-09-21T11:43:49.120Z,28.60
2018-09-21T11:46:18.316Z,28.40
2018-09-21T11:48:47.681Z,28.20
2018-09-21T11:51:16.980Z,28.00
2018-09-21T11:53:46.168Z,27.60
2018-09-21T11:56:15.405Z,27.30
2018-09-21T11:58:44.619Z,27.10
2018-09-21T12:01:13.812Z,26.90
2018-09-21T12:03:43.017Z,26.70
2018-09-21T12:06:12.283Z,26.60
2018-09-21T12:08:41.779Z,26.40
2018-09-21T12:11:10.979Z,26.30
2018-09-21T12:13:40.183Z,26.30
2018-09-21T12:16:09.455Z,26.30
2018-09-21T12:18:40.264Z,26.30
2018-09-21T12:21:09.539Z,26.30
2018-09-21T12:23:38.774Z,26.30
2018-09-21T12:26:07.956Z,26.30
2018-09-21T12:28:37.855Z,26.30
2018-09-21T12:31:07.107Z,26.30
2018-09-21T12:33:36.554Z,26.30
2018-09-21T12:36:05.954Z,26.30
2018-09-21T12:38:35.226Z,26.30
2018-09-21T12:41:04.604Z,26.30
2018-09-21T12:43:34.064Z,26.20
2018-09-21T12:46:05.364Z,26.30
2018-09-21T12:48:34.560Z,26.20
2018-09-21T12:51:04.144Z,26.20
2018-09-21T12:53:33.344Z,26.20
2018-09-21T12:56:02.555Z,26.30
2018-09-21T12:58:31.800Z,26.30
2018-09-21T13:01:00.968Z,26.30
2018-09-21T13:03:30.151Z,26.40
2018-09-21T13:05:59.415Z,26.40
2018-09-21T13:08:28.616Z,26.50
2018-09-21T13:10:57.972Z,26.50
2018-09-21T13:13:27.463Z,26.50
2018-09-21T13:15:56.658Z,26.50
2018-09-21T13:18:27.172Z,26.50
2018-09-21T13:20:56.469Z,26.40
2018-09-21T13:23:25.688Z,26.40
2018-09-21T13:25:54.959Z,26.30
2018-09-21T13:28:24.220Z,26.20
2018-09-21T13:30:53.416Z,26.10
2018-09-21T13:33:22.686Z,26.00
2018-09-21T13:35:51.964Z,25.90
2018-09-21T13:38:21.564Z,25.90
2018-09-21T13:40:50.765Z,25.80
2018-09-21T13:43:19.984Z,25.80
2018-09-21T13:45:49.389Z,25.70
2018-09-21T13:48:18.567Z,25.70
2018-09-21T13:50:48.115Z,25.70
2018-09-21T13:53:17.339Z,25.60
2018-09-21T13:55:46.552Z,25.70
2018-09-21T13:58:16.188Z,25.70
2018-09-21T14:00:45.384Z,25.70
2018-09-21T14:03:14.580Z,25.60
2018-09-21T14:05:43.802Z,25.60
2018-09-21T14:08:12.979Z,25.60
2018-09-21T14:10:42.415Z,25.70
2018-09-21T14:13:12.710Z,25.70
2018-09-21T14:15:42.037Z,25.70
2018-09-21T14:18:11.324Z,25.70
2018-09-21T14:20:44.919Z,25.70
2018-09-21T14:23:14.132Z,25.70
2018-09-21T14:25:43.331Z,25.70
2018-09-21T14:28:12.544Z,25.70
2018-09-21T14:30:42.367Z,25.80
2018-09-21T14:33:12.057Z,25.80
2018-09-21T14:35:41.456Z,25.80
2018-09-21T14:38:10.904Z,25.90
2018-09-21T14:40:40.164Z,25.80
2018-09-21T14:43:09.634Z,25.80
2018-09-21T14:45:38.804Z,25.90
2018-09-21T14:48:08.081Z,25.90
2018-09-21T14:50:39.955Z,25.90
2018-09-21T14:53:09.108Z,25.90
2018-09-21T14:55:38.457Z,25.90
2018-09-21T14:58:07.921Z,25.80
2018-09-21T15:00:37.112Z,25.80
2018-09-21T15:03:07.584Z,25.70
2018-09-21T15:05:36.957Z,25.50
2018-09-21T15:08:06.349Z,24.90
2018-09-21T15:10:35.531Z,24.30
2018-09-21T15:13:04.772Z,23.60
2018-09-21T15:15:33.967Z,22.80
2018-09-21T15:18:03.378Z,21.80
2018-09-21T15:20:32.587Z,20.90
2018-09-21T15:23:01.985Z,20.40
2018-09-21T15:25:31.183Z,19.70
2018-09-21T15:28:00.593Z,19.50
2018-09-21T15:30:31.161Z,19.10
2018-09-21T15:33:00.414Z,18.80
2018-09-21T15:35:29.643Z,18.60
2018-09-21T15:37:58.828Z,18.30
2018-09-21T15:40:28.013Z,18.00
2018-09-21T15:42:57.240Z,17.70
2018-09-21T15:45:26.448Z,17.60
2018-09-21T15:47:55.696Z,17.30
2018-09-21T15:50:25.004Z,17.10
2018-09-21T15:52:54.253Z,16.90
2018-09-21T15:55:23.483Z,16.70
2018-09-21T15:57:52.713Z,16.60
2018-09-21T16:00:21.893Z,16.50
2018-09-21T16:02:51.112Z,16.40
2018-09-21T16:05:20.531Z,16.40
2018-09-21T16:07:49.747Z,16.40
2018-09-21T16:10:18.971Z,16.30
2018-09-21T16:12:48.255Z,16.20
2018-09-21T16:15:18.127Z,16.10
2018-09-21T16:17:47.339Z,16.10
2018-09-21T16:20:16.684Z,16.10
2018-09-21T16:22:45.860Z,16.10
2018-09-21T16:25:15.333Z,16.00
2018-09-21T16:27:44.551Z,16.10
2018-09-21T16:30:14.023Z,16.10
2018-09-21T16:32:44.332Z,16.00
2018-09-21T16:35:13.699Z,16.00
2018-09-21T16:37:42.939Z,15.90
2018-09-21T16:40:12.169Z,16.00
2018-09-21T16:42:41.393Z,16.00
2018-09-21T16:45:10.621Z,15.90
2018-09-21T16:47:40.051Z,16.00
2018-09-21T16:50:10.300Z,16.00
2018-09-21T16:52:40.780Z,16.00
2018-09-21T16:55:09.967Z,16.00
2018-09-21T16:57:39.679Z,15.90
2018-09-21T17:00:10.783Z,15.90
2018-09-21T17:02:39.995Z,16.00
2018-09-21T17:05:09.515Z,16.00
2018-09-21T17:07:38.692Z,16.00
2018-09-21T17:10:08.437Z,16.00
2018-09-21T17:12:37.596Z,16.00
2018-09-21T17:15:06.951Z,16.00
2018-09-21T17:17:36.233Z,15.90
2018-09-21T17:20:05.587Z,15.90
2018-09-21T17:22:38.664Z,15.80
2018-09-21T17:25:08.652Z,15.80
2018-09-21T17:27:39.068Z,15.80
2018-09-21T17:30:08.414Z,15.60
2018-09-21T17:32:37.687Z,15.70
2018-09-21T17:35:08.243Z,15.70
2018-09-21T17:37:37.912Z,15.70
2018-09-21T17:40:07.358Z,15.60
2018-09-21T17:42:36.575Z,15.60
2018-09-21T17:45:05.852Z,15.60
2018-09-21T17:47:35.115Z,15.60
2018-09-21T17:50:04.511Z,15.50
2018-09-21T17:52:33.773Z,15.50
2018-09-21T17:55:03.204Z,15.60
2018-09-21T17:57:32.516Z,15.60
2018-09-21T18:00:01.769Z,15.70
2018-09-21T18:02:30.955Z,15.60
2018-09-21T18:05:00.452Z,15.60
2018-09-21T18:07:29.811Z,15.50
2018-09-21T18:10:00.253Z,15.60
2018-09-21T18:12:29.452Z,15.60
2018-09-21T18:14:59.719Z,15.60
2018-09-21T18:17:28.895Z,15.50
2018-09-21T18:19:58.597Z,15.60
2018-09-21T18:22:27.812Z,15.50
2018-09-21T18:24:57.016Z,15.50
2018-09-21T18:27:26.616Z,15.50
2018-09-21T18:29:55.816Z,15.50
2018-09-21T18:32:25.002Z,15.60
2018-09-21T18:34:54.803Z,15.70
2018-09-21T18:37:24.039Z,15.70
2018-09-21T18:39:53.332Z,15.70
2018-09-21T18:42:22.904Z,15.70
2018-09-21T18:44:52.283Z,15.70
2018-09-21T18:47:24.156Z,15.70
2018-09-21T18:49:53.606Z,15.70
2018-09-21T18:52:22.807Z,15.70
2018-09-21T18:54:52.036Z,15.70
2018-09-21T18:57:21.267Z,15.60
2018-09-21T18:59:50.517Z,15.60
2018-09-21T19:02:20.179Z,15.70
2018-09-21T19:04:49.455Z,15.60
2018-09-21T19:07:24.147Z,15.70
2018-09-21T19:09:53.344Z,15.70
2018-09-21T19:12:22.835Z,15.60
2018-09-21T19:14:52.589Z,15.60
2018-09-21T19:17:22.108Z,15.60
2018-09-21T19:19:52.103Z,15.50
2018-09-21T19:22:21.710Z,15.50
2018-09-21T19:24:51.403Z,15.50
2018-09-21T19:27:20.636Z,15.60
2018-09-21T19:29:49.867Z,15.70
2018-09-21T19:32:20.296Z,15.70
2018-09-21T19:34:49.784Z,15.60
2018-09-21T19:37:19.336Z,15.60
2018-09-21T19:39:48.827Z,15.60
2018-09-21T19:42:18.168Z,15.40
2018-09-21T19:44:48.795Z,15.40
2018-09-21T19:47:19.211Z,15.50
2018-09-21T19:49:48.459Z,15.40
2018-09-21T19:52:17.673Z,15.40
2018-09-21T19:54:46.933Z,15.40
2018-09-21T19:57:16.061Z,15.40
2018-09-21T19:59:45.323Z,15.40
2018-09-21T20:02:14.521Z,15.40
2018-09-21T20:04:43.771Z,15.40
2018-09-21T20:07:13.237Z,15.50
2018-09-21T20:09:42.454Z,15.50
2018-09-21T20:12:11.907Z,15.60
2018-09-21T20:14:42.043Z,15.50
2018-09-21T20:17:11.677Z,15.60
2018-09-21T20:19:40.871Z,15.60
2018-09-21T20:22:11.367Z,15.60
2018-09-21T20:24:40.583Z,15.50
2018-09-21T20:27:11.131Z,15.50
2018-09-21T20:29:40.767Z,15.40
2018-09-21T20:32:15.178Z,15.40
2018-09-21T20:34:44.580Z,15.40
2018-09-21T20:37:13.829Z,15.40
2018-09-21T20:39:43.020Z,15.50
2018-09-21T20:42:12.244Z,15.50
2018-09-21T20:44:41.460Z,15.40
2018-09-21T20:47:10.784Z,15.40
2018-09-21T20:49:40.303Z,15.40
2018-09-21T20:52:09.685Z,15.30
2018-09-21T20:54:38.903Z,15.30
2018-09-21T20:57:08.115Z,15.40
2018-09-21T20:59:37.304Z,15.40
2018-09-21T21:02:06.900Z,15.30
2018-09-21T21:04:36.109Z,15.30
2018-09-21T21:07:05.428Z,15.40
2018-09-21T21:09:34.603Z,15.40
2018-09-21T21:12:04.468Z,15.40
2018-09-21T21:14:33.827Z,15.30
2018-09-21T21:17:03.069Z,15.40
2018-09-21T21:19:32.728Z,15.40
2018-09-21T21:22:02.131Z,15.40
2018-09-21T21:24:31.316Z,15.30
2018-09-21T21:27:00.539Z,15.30
2018-09-21T21:29:29.774Z,15.40
2018-09-21T21:31:58.943Z,15.40
2018-09-21T21:34:28.598Z,15.40
2018-09-21T21:36:58.303Z,15.30
2018-09-21T21:39:27.522Z,15.40
2018-09-21T21:41:56.734Z,15.40
2018-09-21T21:44:26.198Z,15.40
2018-09-21T21:46:55.392Z,15.40
2018-09-21T21:49:24.663Z,15.40
2018-09-21T21:51:53.899Z,15.40
2018-09-21T21:54:23.176Z,15.30
2018-09-21T21:56:52.699Z,15.30
2018-09-21T21:59:21.912Z,15.20
2018-09-21T22:01:51.163Z,15.30
2018-09-21T22:04:20.395Z,15.20
2018-09-21T22:06:49.847Z,15.30
2018-09-21T22:09:19.034Z,15.20
2018-09-21T22:11:53.992Z,15.20
2018-09-21T22:14:23.211Z,15.20
2018-09-21T22:16:52.465Z,15.20
2018-09-21T22:19:21.676Z,15.20
2018-09-21T22:21:51.316Z,15.20
2018-09-21T22:24:20.651Z,15.20
2018-09-21T22:26:49.894Z,15.10
2018-09-21T22:29:19.116Z,15.10
2018-09-21T22:31:48.384Z,15.10
2018-09-21T22:34:17.959Z,15.10
2018-09-21T22:36:47.164Z,15.00
2018-09-21T22:39:16.624Z,14.90
2018-09-21T22:41:46.739Z,14.90
2018-09-21T22:44:15.944Z,15.00
2018-09-21T22:46:45.139Z,14.90
2018-09-21T22:49:19.043Z,15.00
2018-09-21T22:51:48.225Z,14.90
2018-09-21T22:54:17.443Z,14.80
2018-09-21T22:56:46.859Z,14.80
2018-09-21T22:59:16.043Z,14.70
2018-09-21T23:01:45.275Z,14.70
2018-09-21T23:04:14.820Z,14.70
2018-09-21T23:06:44.014Z,14.70
2018-09-21T23:09:13.576Z,14.70
2018-09-21T23:11:43.619Z,14.60
2018-09-21T23:14:12.844Z,14.50
2018-09-21T23:16:42.027Z,14.50
2018-09-21T23:19:11.272Z,14.40
2018-09-21T23:21:40.447Z,14.40
2018-09-21T23:24:09.710Z,14.30
2018-09-21T23:26:38.940Z,14.30
2018-09-21T23:29:08.143Z,14.30
2018-09-21T23:31:37.391Z,14.20
2018-09-21T23:34:07.016Z,14.20
2018-09-21T23:36:36.207Z,14.20
2018-09-21T23:39:08.358Z,14.20
2018-09-21T23:41:38.280Z,14.10
2018-09-21T23:44:07.880Z,14.10
2018-09-21T23:46:37.406Z,14.10
2018-09-21T23:49:06.694Z,14.20
2018-09-21T23:51:35.947Z,14.20
2018-09-21T23:54:05.648Z,14.10
2018-09-21T23:56:34.857Z,14.10
2018-09-21T23:59:04.124Z,14.00
